createdAt,value
2019-01-21T00:01:22.715Z,75.00
2019-01-21T00:03:49.927Z,75.28
2019-01-21T00:06:17.124Z,75.06
2019-01-21T00:08:44.323Z,75.05
2019-01-21T00:11:11.617Z,75.15
2019-01-21T00:13:38.850Z,75.10
2019-01-21T00:16:06.023Z,74.15
2019-01-21T00:18:33.243Z,74.03
2019-01-21T00:21:00.359Z,74.04
2019-01-21T00:23:27.795Z,74.57
2019-01-21T00:25:55.006Z,75.45
2019-01-21T00:28:22.441Z,76.23
2019-01-21T00:30:49.699Z,76.56
2019-01-21T00:33:16.793Z,76.81
2019-01-21T00:35:43.863Z,77.08
2019-01-21T00:38:10.941Z,77.00
2019-01-21T00:40:38.134Z,76.97
2019-01-21T00:43:05.590Z,76.98
2019-01-21T00:45:32.750Z,77.00
2019-01-21T00:47:59.846Z,76.95
2019-01-21T00:50:26.990Z,76.74
2019-01-21T00:52:54.140Z,76.53
2019-01-21T00:55:21.320Z,76.48
2019-01-21T00:57:48.781Z,76.28
2019-01-21T01:00:18.734Z,76.37
2019-01-21T01:02:45.972Z,76.24
2019-01-21T01:05:13.420Z,76.00
2019-01-21T01:07:41.137Z,75.98
2019-01-21T01:10:09.434Z,76.09
2019-01-21T01:12:36.634Z,76.14
2019-01-21T01:15:04.543Z,76.33
2019-01-21T01:17:37.118Z,76.44
2019-01-21T01:20:00.794Z,76.49
2019-01-21T01:22:27.972Z,76.55
2019-01-21T01:24:55.235Z,76.66
2019-01-21T01:27:22.418Z,76.75
2019-01-21T01:29:49.616Z,76.75
2019-01-21T01:32:16.828Z,76.62
2019-01-21T01:34:44.049Z,76.76
2019-01-21T01:37:11.414Z,76.92
2019-01-21T01:39:38.690Z,76.96
2019-01-21T01:42:05.941Z,76.95
2019-01-21T01:44:33.090Z,77.06
2019-01-21T01:47:00.540Z,77.22
2019-01-21T01:49:27.724Z,77.20
2019-01-21T01:51:55.082Z,77.22
2019-01-21T01:54:22.699Z,77.26
2019-01-21T01:56:49.741Z,77.27
2019-01-21T01:59:16.922Z,77.29
2019-01-21T02:01:44.092Z,77.19
2019-01-21T02:04:11.280Z,77.04
2019-01-21T02:06:38.437Z,77.14
2019-01-21T02:09:07.431Z,77.08
2019-01-21T02:11:34.956Z,77.11
2019-01-21T02:14:02.183Z,77.18
2019-01-21T02:16:29.370Z,77.20
2019-01-21T02:18:56.578Z,77.25
2019-01-21T02:21:26.680Z,77.29
2019-01-21T02:24:01.606Z,77.24
2019-01-21T02:26:32.165Z,77.17
2019-01-21T02:29:12.911Z,77.14
2019-01-21T02:32:17.228Z,77.18
2019-01-21T02:35:00.072Z,77.32
2019-01-21T02:38:01.620Z,77.38
2019-01-21T02:40:46.710Z,77.33
2019-01-21T02:43:45.552Z,77.48
2019-01-21T02:46:52.687Z,77.45
2019-01-21T02:50:07.428Z,77.47
2019-01-21T02:52:52.163Z,77.49
2019-01-21T02:55:40.840Z,77.34
2019-01-21T02:58:20.417Z,77.20
2019-01-21T03:01:11.393Z,77.19
2019-01-21T03:04:47.584Z,77.33
2019-01-21T03:07:24.782Z,77.34
2019-01-21T03:10:18.845Z,77.24
2019-01-21T03:13:07.455Z,77.28
2019-01-21T03:16:01.818Z,77.34
2019-01-21T03:18:55.927Z,77.46
2019-01-21T03:22:15.804Z,77.45
2019-01-21T03:25:33.927Z,77.46
2019-01-21T03:28:46.131Z,77.67
2019-01-21T03:31:49.192Z,78.27
2019-01-21T03:34:41.960Z,78.39
2019-01-21T03:38:02.834Z,78.41
2019-01-21T03:40:52.277Z,78.21
2019-01-21T03:44:04.360Z,77.96
2019-01-21T03:46:59.001Z,77.95
2019-01-21T03:49:38.224Z,77.92
2019-01-21T03:52:24.071Z,77.76
2019-01-21T03:55:01.944Z,77.49
2019-01-21T03:58:07.815Z,77.35
2019-01-21T04:01:05.604Z,77.28
2019-01-21T04:04:05.168Z,77.35
2019-01-21T04:06:47.832Z,77.44
2019-01-21T04:09:52.500Z,77.48
2019-01-21T04:12:47.136Z,77.56
2019-01-21T04:15:48.021Z,77.61
2019-01-21T04:19:01.969Z,77.71
2019-01-21T04:21:55.000Z,77.70
2019-01-21T04:24:47.922Z,77.79
2019-01-21T04:28:15.232Z,77.69
2019-01-21T04:31:08.641Z,77.29
2019-01-21T04:34:09.368Z,77.56
2019-01-21T04:37:09.271Z,77.81
2019-01-21T04:40:23.787Z,78.11
2019-01-21T04:43:27.271Z,78.31
2019-01-21T04:46:29.227Z,78.51
2019-01-21T04:49:36.297Z,78.55
2019-01-21T04:52:53.342Z,78.44
2019-01-21T04:55:56.645Z,78.42
2019-01-21T04:59:04.570Z,78.50
2019-01-21T05:02:18.772Z,78.63
2019-01-21T05:05:28.764Z,78.86
2019-01-21T05:08:30.885Z,78.81
2019-01-21T05:11:15.966Z,78.53
2019-01-21T05:14:16.095Z,78.57
2019-01-21T05:17:07.703Z,78.53
2019-01-21T05:20:12.760Z,78.67
2019-01-21T05:23:00.433Z,78.84
2019-01-21T05:26:08.755Z,78.84
2019-01-21T05:29:35.524Z,78.73
2019-01-21T05:32:58.024Z,78.62
2019-01-21T05:36:14.963Z,78.43
2019-01-21T05:38:56.528Z,78.69
2019-01-21T05:42:11.402Z,78.58
2019-01-21T05:44:50.713Z,78.85
2019-01-21T05:47:58.381Z,79.52
2019-01-21T05:51:10.586Z,79.79
2019-01-21T05:54:19.015Z,80.00
2019-01-21T05:57:24.882Z,80.15
2019-01-21T06:00:19.250Z,79.74
2019-01-21T06:03:26.380Z,78.90
2019-01-21T06:06:22.115Z,78.76
2019-01-21T06:09:27.282Z,78.77
2019-01-21T06:12:11.157Z,78.64
2019-01-21T06:15:12.131Z,78.89
2019-01-21T06:18:17.186Z,78.62
2019-01-21T06:21:34.857Z,78.99
2019-01-21T06:24:50.088Z,79.29
2019-01-21T06:28:02.137Z,79.41
2019-01-21T06:31:26.447Z,79.44
2019-01-21T06:34:34.433Z,79.41
2019-01-21T06:37:17.264Z,79.09
2019-01-21T06:40:09.610Z,79.13
2019-01-21T06:43:21.369Z,79.19
2019-01-21T06:46:42.237Z,79.27
2019-01-21T06:49:51.516Z,79.38
2019-01-21T06:52:59.104Z,79.43
2019-01-21T06:55:46.729Z,79.46
2019-01-21T06:58:53.430Z,79.21
2019-01-21T07:01:46.651Z,79.13
2019-01-21T07:04:41.887Z,79.48
2019-01-21T07:08:01.995Z,79.70
2019-01-21T07:11:09.585Z,79.82
2019-01-21T07:14:07.123Z,79.73
2019-01-21T07:17:02.467Z,79.12
2019-01-21T07:19:57.264Z,78.66
2019-01-21T07:23:00.551Z,78.48
2019-01-21T07:25:43.613Z,78.23
2019-01-21T07:28:42.149Z,77.81
2019-01-21T07:31:43.320Z,77.49
2019-01-21T07:34:39.000Z,77.62
2019-01-21T07:37:41.046Z,77.79
2019-01-21T07:40:53.491Z,77.78
2019-01-21T07:43:54.173Z,77.49
2019-01-21T07:47:06.160Z,77.02
2019-01-21T07:50:14.235Z,76.48
2019-01-21T07:53:15.350Z,75.91
2019-01-21T07:56:31.981Z,75.42
2019-01-21T07:59:38.585Z,74.63
2019-01-21T08:02:22.355Z,73.11
2019-01-21T08:05:28.433Z,72.93
2019-01-21T08:08:06.848Z,71.29
2019-01-21T08:11:16.987Z,66.59
2019-01-21T08:14:18.901Z,62.42
2019-01-21T08:17:23.569Z,58.68
2019-01-21T08:20:03.970Z,57.19
2019-01-21T08:23:17.518Z,57.83
2019-01-21T08:26:06.716Z,59.29
2019-01-21T08:29:17.172Z,60.73
2019-01-21T08:32:07.846Z,61.16
2019-01-21T08:35:18.852Z,61.32
2019-01-21T08:38:29.029Z,62.10
2019-01-21T08:41:40.767Z,62.98
2019-01-21T08:44:45.536Z,63.98
2019-01-21T08:47:47.214Z,64.59
2019-01-21T08:50:48.170Z,65.04
2019-01-21T08:53:55.755Z,65.52
2019-01-21T08:56:43.114Z,65.48
2019-01-21T08:59:37.935Z,65.92
2019-01-21T09:02:58.311Z,66.42
2019-01-21T09:06:04.844Z,66.79
2019-01-21T09:09:00.183Z,67.30
2019-01-21T09:12:09.379Z,66.96
2019-01-21T09:15:23.930Z,65.69
2019-01-21T09:18:37.793Z,64.83
2019-01-21T09:21:29.467Z,64.49
2019-01-21T09:24:28.547Z,63.88
2019-01-21T09:27:33.012Z,63.28
2019-01-21T09:30:40.615Z,63.13
2019-01-21T09:33:48.510Z,62.96
2019-01-21T09:36:43.196Z,63.03
2019-01-21T09:39:41.593Z,62.07
2019-01-21T09:42:32.726Z,62.54
2019-01-21T09:45:55.057Z,62.50
2019-01-21T09:48:21.509Z,62.03
2019-01-21T09:50:49.691Z,62.37
2019-01-21T09:53:16.915Z,62.30
2019-01-21T09:55:48.244Z,62.07
2019-01-21T09:58:15.682Z,62.25
2019-01-21T10:00:42.874Z,62.28
2019-01-21T10:03:11.265Z,62.21
2019-01-21T10:05:40.850Z,62.24
2019-01-21T10:08:56.419Z,62.30
2019-01-21T10:12:11.685Z,62.42
2019-01-21T10:15:19.394Z,62.64
2019-01-21T10:18:19.147Z,62.80
2019-01-21T10:21:38.262Z,63.83
2019-01-21T10:24:59.299Z,64.21
2019-01-21T10:28:05.424Z,64.05
2019-01-21T10:31:21.783Z,63.54
2019-01-21T10:34:29.788Z,63.44
2019-01-21T10:37:34.210Z,63.45
2019-01-21T10:40:08.139Z,63.89
2019-01-21T10:43:19.948Z,64.67
2019-01-21T10:46:09.786Z,63.98
2019-01-21T10:48:58.839Z,63.76
2019-01-21T10:52:10.149Z,63.88
2019-01-21T10:54:53.204Z,64.18
2019-01-21T10:57:34.625Z,63.99
2019-01-21T11:00:41.582Z,63.72
2019-01-21T11:03:29.657Z,63.60
2019-01-21T11:06:11.040Z,63.53
2019-01-21T11:09:12.859Z,63.73
2019-01-21T11:12:24.163Z,63.36
2019-01-21T11:15:31.048Z,63.32
2019-01-21T11:18:38.900Z,63.67
2019-01-21T11:21:26.971Z,63.79
2019-01-21T11:24:28.709Z,63.21
2019-01-21T11:27:28.550Z,62.94
2019-01-21T11:30:32.029Z,63.05
2019-01-21T11:33:39.575Z,63.39
2019-01-21T11:36:51.172Z,63.82
2019-01-21T11:40:11.095Z,63.94
2019-01-21T11:42:58.980Z,64.40
2019-01-21T11:45:45.461Z,64.51
2019-01-21T11:48:43.195Z,63.96
2019-01-21T11:51:42.624Z,63.68
2019-01-21T11:54:24.705Z,63.49
2019-01-21T11:57:14.721Z,62.68
2019-01-21T12:00:11.489Z,62.87
2019-01-21T12:03:10.151Z,62.53
2019-01-21T12:05:54.663Z,62.21
2019-01-21T12:09:09.350Z,62.00
2019-01-21T12:12:14.495Z,62.08
2019-01-21T12:15:37.986Z,62.10
2019-01-21T12:18:41.646Z,62.21
2019-01-21T12:21:53.860Z,62.26
2019-01-21T12:24:42.369Z,62.52
2019-01-21T12:27:43.446Z,62.39
2019-01-21T12:30:19.479Z,62.35
2019-01-21T12:33:46.668Z,62.54
2019-01-21T12:36:30.423Z,61.94
2019-01-21T12:39:28.400Z,62.11
2019-01-21T12:42:15.077Z,62.21
2019-01-21T12:45:11.538Z,61.95
2019-01-21T12:47:46.669Z,61.42
2019-01-21T12:50:51.411Z,61.29
2019-01-21T12:53:44.818Z,61.25
2019-01-21T12:56:38.868Z,61.15
2019-01-21T12:59:38.501Z,61.03
2019-01-21T13:02:21.850Z,61.15
2019-01-21T13:05:42.892Z,61.43
2019-01-21T13:08:42.954Z,61.44
2019-01-21T13:11:22.723Z,61.56
2019-01-21T13:14:15.421Z,61.46
2019-01-21T13:17:06.725Z,61.64
2019-01-21T13:20:03.021Z,61.53
2019-01-21T13:23:23.751Z,61.74
2019-01-21T13:26:39.164Z,61.83
2019-01-21T13:29:35.234Z,60.97
2019-01-21T13:32:47.042Z,60.75
2019-01-21T13:35:57.868Z,61.14
2019-01-21T13:39:24.938Z,61.30
2019-01-21T13:42:27.361Z,61.74
2019-01-21T13:45:32.180Z,61.56
2019-01-21T13:48:36.726Z,61.28
2019-01-21T13:51:53.215Z,61.48
2019-01-21T13:54:38.704Z,61.53
2019-01-21T13:57:59.774Z,61.60
2019-01-21T14:00:53.710Z,61.72
2019-01-21T14:04:13.935Z,61.76
2019-01-21T14:07:13.915Z,61.81
2019-01-21T14:10:17.286Z,61.83
2019-01-21T14:13:26.273Z,61.75
2019-01-21T14:16:14.450Z,61.68
2019-01-21T14:19:38.358Z,61.72
2019-01-21T14:22:54.859Z,61.99
2019-01-21T14:26:16.630Z,62.40
2019-01-21T14:29:40.934Z,62.33
2019-01-21T14:32:32.969Z,61.84
2019-01-21T14:35:18.046Z,62.28
2019-01-21T14:38:22.772Z,62.74
2019-01-21T14:41:29.944Z,62.88
2019-01-21T14:44:37.524Z,62.97
2019-01-21T14:47:42.045Z,63.18
2019-01-21T14:50:50.391Z,63.47
2019-01-21T14:53:26.021Z,62.96
2019-01-21T14:56:10.362Z,62.67
2019-01-21T14:58:59.224Z,62.72
2019-01-21T15:02:00.336Z,62.84
2019-01-21T15:05:04.718Z,63.27
2019-01-21T15:08:21.325Z,63.82
2019-01-21T15:11:20.922Z,64.15
2019-01-21T15:14:14.640Z,64.55
2019-01-21T15:17:38.650Z,65.09
2019-01-21T15:20:14.698Z,65.27
2019-01-21T15:23:44.704Z,65.54
2019-01-21T15:27:12.033Z,65.89
2019-01-21T15:30:21.232Z,66.20
2019-01-21T15:33:02.696Z,66.64
2019-01-21T15:36:05.170Z,66.77
2019-01-21T15:39:10.016Z,67.00
2019-01-21T15:42:21.605Z,67.22
2019-01-21T15:45:41.492Z,67.33
2019-01-21T15:48:29.318Z,67.52
2019-01-21T15:51:37.277Z,67.92
2019-01-21T15:54:49.551Z,68.32
2019-01-21T15:57:35.286Z,68.76
2019-01-21T16:00:43.324Z,69.15
2019-01-21T16:03:26.329Z,69.41
2019-01-21T16:06:28.889Z,69.67
2019-01-21T16:09:20.656Z,69.55
2019-01-21T16:11:56.026Z,69.45
2019-01-21T16:14:55.347Z,69.69
2019-01-21T16:17:55.564Z,70.00
2019-01-21T16:20:40.288Z,70.33
2019-01-21T16:23:51.655Z,70.30
2019-01-21T16:26:53.014Z,70.43
2019-01-21T16:29:47.425Z,70.96
2019-01-21T16:32:45.357Z,71.91
2019-01-21T16:36:05.466Z,72.60
2019-01-21T16:39:04.791Z,72.89
2019-01-21T16:41:56.567Z,73.15
2019-01-21T16:44:23.702Z,73.41
2019-01-21T16:46:50.901Z,73.78
2019-01-21T16:49:18.857Z,74.10
2019-01-21T16:51:46.233Z,74.41
2019-01-21T16:54:13.282Z,74.66
2019-01-21T16:56:40.528Z,74.78
2019-01-21T16:59:08.058Z,74.94
2019-01-21T17:01:35.315Z,75.10
2019-01-21T17:04:02.661Z,75.24
2019-01-21T17:06:29.841Z,75.34
2019-01-21T17:08:57.455Z,75.30
2019-01-21T17:11:24.999Z,75.36
2019-01-21T17:13:52.229Z,75.60
2019-01-21T17:16:19.405Z,75.87
2019-01-21T17:18:46.748Z,76.08
2019-01-21T17:21:13.997Z,76.03
2019-01-21T17:23:41.409Z,75.71
2019-01-21T17:26:08.697Z,75.29
2019-01-21T17:28:35.892Z,75.00
2019-01-21T17:31:03.132Z,74.96
2019-01-21T17:33:30.378Z,74.92
2019-01-21T17:35:57.501Z,75.06
2019-01-21T17:38:24.760Z,75.08
2019-01-21T17:40:52.156Z,75.16
2019-01-21T17:43:19.381Z,75.28
2019-01-21T17:46:09.846Z,75.44
2019-01-21T17:48:37.813Z,75.63
2019-01-21T17:51:05.056Z,75.82
2019-01-21T17:53:32.401Z,76.06
2019-01-21T17:55:59.567Z,76.11
2019-01-21T17:58:26.875Z,76.27
2019-01-21T18:00:54.110Z,76.59
2019-01-21T18:03:21.401Z,76.79
2019-01-21T18:05:48.668Z,76.92
2019-01-21T18:08:15.915Z,77.18
2019-01-21T18:10:43.093Z,77.23
2019-01-21T18:13:10.613Z,77.35
2019-01-21T18:15:37.856Z,77.56
2019-01-21T18:18:05.062Z,77.97
2019-01-21T18:20:32.362Z,78.13
2019-01-21T18:22:59.930Z,78.27
2019-01-21T18:25:27.471Z,78.33
2019-01-21T18:27:54.565Z,78.42
2019-01-21T18:30:24.988Z,78.58
2019-01-21T18:32:52.652Z,78.89
2019-01-21T18:35:19.884Z,79.15
2019-01-21T18:37:47.408Z,79.40
2019-01-21T18:40:16.284Z,79.73
2019-01-21T18:42:44.062Z,79.95
2019-01-21T18:45:12.777Z,79.97
2019-01-21T18:47:39.961Z,80.11
2019-01-21T18:50:08.226Z,80.49
2019-01-21T18:52:36.895Z,80.66
2019-01-21T18:55:04.432Z,80.72
2019-01-21T18:57:31.724Z,80.84
2019-01-21T18:59:58.945Z,81.21
2019-01-21T19:02:26.170Z,81.56
2019-01-21T19:04:53.495Z,81.77
2019-01-21T19:07:21.371Z,81.71
2019-01-21T19:09:48.639Z,81.63
2019-01-21T19:12:15.856Z,81.49
2019-01-21T19:14:42.994Z,81.34
2019-01-21T19:17:10.494Z,81.29
2019-01-21T19:19:37.826Z,81.21
2019-01-21T19:22:05.372Z,81.12
2019-01-21T19:24:32.664Z,81.14
2019-01-21T19:26:59.865Z,81.32
2019-01-21T19:29:27.086Z,81.38
2019-01-21T19:31:54.383Z,81.49
2019-01-21T19:34:21.855Z,81.67
2019-01-21T19:36:49.191Z,81.78
2019-01-21T19:39:16.391Z,81.82
2019-01-21T19:41:44.005Z,81.90
2019-01-21T19:44:11.886Z,81.84
2019-01-21T19:46:44.099Z,81.83
2019-01-21T19:49:08.558Z,81.81
2019-01-21T19:51:36.252Z,81.94
2019-01-21T19:54:03.832Z,82.04
2019-01-21T19:56:30.973Z,82.20
2019-01-21T19:58:58.218Z,82.37
2019-01-21T20:01:25.456Z,82.42
2019-01-21T20:03:52.758Z,82.44
2019-01-21T20:06:22.269Z,82.47
2019-01-21T20:08:49.476Z,82.54
2019-01-21T20:11:16.722Z,82.60
2019-01-21T20:13:44.057Z,82.43
2019-01-21T20:16:11.638Z,82.25
2019-01-21T20:18:38.864Z,81.87
2019-01-21T20:21:06.027Z,81.06
2019-01-21T20:23:33.244Z,80.64
2019-01-21T20:26:00.567Z,80.24
2019-01-21T20:28:28.129Z,80.21
2019-01-21T20:30:55.316Z,80.26
2019-01-21T20:33:22.713Z,80.63
2019-01-21T20:35:49.911Z,81.07
2019-01-21T20:38:17.155Z,81.42
2019-01-21T20:40:44.391Z,81.66
2019-01-21T20:43:11.572Z,81.93
2019-01-21T20:45:38.793Z,82.15
2019-01-21T20:48:06.168Z,82.65
2019-01-21T20:50:35.215Z,82.96
2019-01-21T20:53:03.067Z,83.01
2019-01-21T20:55:30.597Z,82.91
2019-01-21T20:57:58.105Z,82.94
2019-01-21T21:00:26.846Z,82.97
2019-01-21T21:02:54.883Z,83.08
2019-01-21T21:05:22.116Z,83.30
2019-01-21T21:07:49.383Z,83.58
2019-01-21T21:10:17.021Z,83.69
2019-01-21T21:12:44.271Z,83.77
2019-01-21T21:15:17.122Z,83.60
2019-01-21T21:17:44.218Z,83.43
2019-01-21T21:20:13.172Z,83.34
2019-01-21T21:22:42.460Z,83.30
2019-01-21T21:25:11.036Z,83.31
2019-01-21T21:27:38.355Z,83.29
2019-01-21T21:30:26.249Z,83.35
2019-01-21T21:32:56.938Z,83.45
2019-01-21T21:35:24.243Z,83.60
2019-01-21T21:37:51.491Z,83.55
2019-01-21T21:40:19.036Z,83.51
2019-01-21T21:42:46.257Z,83.48
2019-01-21T21:45:14.831Z,83.52
2019-01-21T21:47:41.924Z,83.61
2019-01-21T21:50:12.060Z,83.81
2019-01-21T21:52:39.293Z,83.94
2019-01-21T21:55:07.826Z,84.05
2019-01-21T21:57:35.408Z,84.07
2019-01-21T22:00:04.516Z,84.04
2019-01-21T22:02:31.745Z,84.01
2019-01-21T22:04:58.979Z,84.02
2019-01-21T22:07:26.406Z,84.05
2019-01-21T22:09:53.596Z,84.03
2019-01-21T22:12:20.702Z,84.02
2019-01-21T22:14:48.226Z,83.94
2019-01-21T22:17:15.340Z,83.95
2019-01-21T22:19:42.516Z,84.00
2019-01-21T22:22:09.765Z,84.08
2019-01-21T22:24:37.286Z,84.12
2019-01-21T22:27:04.494Z,84.16
2019-01-21T22:29:32.024Z,84.17
2019-01-21T22:31:59.240Z,84.23
2019-01-21T22:34:26.426Z,84.30
2019-01-21T22:36:53.982Z,84.55
2019-01-21T22:39:21.219Z,84.79
2019-01-21T22:41:48.409Z,84.96
2019-01-21T22:44:15.621Z,85.14
2019-01-21T22:46:42.837Z,85.26
2019-01-21T22:49:10.015Z,85.30
2019-01-21T22:51:37.261Z,85.42
2019-01-21T22:54:04.468Z,85.48
2019-01-21T22:56:32.220Z,85.44
2019-01-21T22:58:59.342Z,85.48
2019-01-21T23:01:29.546Z,85.55
2019-01-21T23:03:56.750Z,85.70
2019-01-21T23:06:23.949Z,85.77
2019-01-21T23:08:51.147Z,85.79
2019-01-21T23:11:18.325Z,85.87
2019-01-21T23:13:45.532Z,85.89
2019-01-21T23:16:13.076Z,85.89
2019-01-21T23:18:40.257Z,85.94
2019-01-21T23:21:07.549Z,86.01
2019-01-21T23:23:34.994Z,86.09
2019-01-21T23:26:02.245Z,86.26
2019-01-21T23:28:29.785Z,86.33
2019-01-21T23:30:56.991Z,86.31
2019-01-21T23:33:24.227Z,86.22
2019-01-21T23:35:51.370Z,86.22
2019-01-21T23:38:18.639Z,86.23
2019-01-21T23:40:45.972Z,86.37
2019-01-21T23:43:13.192Z,86.41
2019-01-21T23:45:40.731Z,86.46
2019-01-21T23:48:08.099Z,86.38
2019-01-21T23:50:35.819Z,86.18
2019-01-21T23:53:03.387Z,86.04
2019-01-21T23:55:30.553Z,85.97
2019-01-21T23:57:57.749Z,85.97
